createdAt,value
2023-03-26T00:01:15.951Z,99.90
2023-03-26T00:03:44.951Z,99.90
2023-03-26T00:06:14.404Z,99.90
2023-03-26T00:08:43.008Z,99.90
2023-03-26T00:11:11.434Z,99.90
2023-03-26T00:13:38.640Z,99.90
2023-03-26T00:16:06.522Z,99.90
2023-03-26T00:18:35.009Z,99.90
2023-03-26T00:21:05.365Z,99.90
2023-03-26T00:23:35.197Z,99.90
2023-03-26T00:26:03.794Z,99.90
2023-03-26T00:28:30.830Z,99.90
2023-03-26T00:31:00.750Z,99.90
2023-03-26T00:33:28.428Z,99.90
2023-03-26T00:35:58.832Z,99.90
2023-03-26T00:38:27.728Z,99.90
2023-03-26T00:40:56.440Z,99.90
2023-03-26T00:43:23.777Z,99.90
2023-03-26T00:45:55.513Z,99.90
2023-03-26T00:48:34.354Z,99.90
2023-03-26T00:51:11.025Z,99.90
2023-03-26T00:53:39.132Z,99.90
2023-03-26T00:56:07.698Z,99.90
2023-03-26T00:58:35.013Z,99.90
2023-03-26T01:01:05.729Z,99.90
2023-03-26T01:03:34.952Z,99.90
2023-03-26T01:06:08.036Z,99.90
2023-03-26T01:09:00.395Z,99.90
2023-03-26T01:11:30.831Z,99.90
2023-03-26T01:14:07.329Z,99.90
2023-03-26T01:16:39.695Z,99.90
2023-03-26T01:19:08.649Z,99.90
2023-03-26T01:21:35.937Z,99.90
2023-03-26T01:24:05.245Z,99.90
2023-03-26T01:26:44.271Z,99.90
2023-03-26T01:29:27.805Z,99.90
2023-03-26T01:32:03.391Z,99.90
2023-03-26T01:34:37.449Z,99.90
2023-03-26T01:37:13.299Z,99.90
2023-03-26T01:39:57.105Z,99.90
2023-03-26T01:42:41.729Z,99.90
2023-03-26T01:45:15.490Z,99.90
2023-03-26T01:47:43.766Z,99.90
2023-03-26T01:50:11.144Z,99.90
2023-03-26T01:52:38.296Z,99.90
2023-03-26T01:55:06.641Z,99.90
2023-03-26T01:57:48.880Z,99.90
2023-03-26T02:00:28.809Z,99.90
2023-03-26T02:03:17.812Z,99.90
2023-03-26T02:05:57.963Z,99.90
2023-03-26T02:08:42.505Z,99.90
2023-03-26T02:11:13.225Z,99.90
2023-03-26T02:13:46.197Z,99.90
2023-03-26T02:16:16.502Z,99.90
2023-03-26T02:18:45.299Z,99.90
2023-03-26T02:21:15.456Z,99.90
2023-03-26T02:23:46.913Z,99.90
2023-03-26T02:26:16.901Z,99.90
2023-03-26T02:28:43.856Z,99.90
2023-03-26T02:31:13.901Z,99.90
2023-03-26T02:33:40.947Z,99.90
2023-03-26T02:36:08.664Z,99.90
2023-03-26T02:38:35.857Z,99.90
2023-03-26T02:41:03.580Z,99.90
2023-03-26T02:43:30.767Z,99.90
2023-03-26T02:45:58.408Z,99.90
2023-03-26T02:48:25.641Z,99.90
2023-03-26T02:50:54.563Z,99.90
2023-03-26T02:53:24.082Z,99.90
2023-03-26T02:55:51.356Z,99.90
2023-03-26T02:58:18.372Z,99.90
2023-03-26T03:00:46.997Z,99.90
2023-03-26T03:03:17.247Z,99.90
2023-03-26T03:05:44.447Z,99.90
2023-03-26T03:08:11.597Z,99.90
2023-03-26T03:10:39.535Z,99.90
2023-03-26T03:13:07.840Z,99.90
2023-03-26T03:15:35.190Z,99.90
2023-03-26T03:18:02.450Z,99.90
2023-03-26T03:20:30.455Z,99.90
2023-03-26T03:22:57.446Z,99.90
2023-03-26T03:25:26.111Z,99.90
2023-03-26T03:27:56.992Z,99.90
2023-03-26T03:30:27.126Z,99.90
2023-03-26T03:33:02.329Z,99.90
2023-03-26T03:35:30.372Z,99.90
2023-03-26T03:37:58.569Z,99.90
2023-03-26T03:40:25.887Z,99.90
2023-03-26T03:42:53.120Z,99.90
2023-03-26T03:45:20.265Z,99.90
2023-03-26T03:47:47.272Z,99.90
2023-03-26T03:50:14.238Z,99.90
2023-03-26T03:52:41.202Z,99.90
2023-03-26T03:55:10.614Z,99.90
2023-03-26T03:57:37.608Z,99.90
2023-03-26T04:00:09.074Z,99.90
2023-03-26T04:02:36.151Z,99.90
2023-03-26T04:05:04.725Z,99.90
2023-03-26T04:07:32.486Z,99.90
2023-03-26T04:10:00.536Z,99.90
2023-03-26T04:12:28.545Z,99.90
2023-03-26T04:14:56.148Z,99.90
2023-03-26T04:17:23.241Z,99.90
2023-03-26T04:19:52.969Z,99.90
2023-03-26T04:22:20.027Z,99.90
2023-03-26T04:24:48.842Z,99.90
2023-03-26T04:27:19.013Z,99.90
2023-03-26T04:29:49.954Z,99.90
2023-03-26T04:32:34.210Z,99.90
2023-03-26T04:35:04.179Z,99.90
2023-03-26T04:37:39.777Z,99.90
2023-03-26T04:40:16.058Z,99.90
2023-03-26T04:42:46.355Z,99.90
2023-03-26T04:45:22.583Z,99.90
2023-03-26T04:47:50.693Z,99.90
2023-03-26T04:50:17.982Z,99.90
2023-03-26T04:52:45.596Z,99.90
2023-03-26T04:55:27.806Z,99.90
2023-03-26T04:57:57.497Z,99.90
2023-03-26T05:00:25.423Z,99.90
2023-03-26T05:02:54.001Z,99.90
2023-03-26T05:05:21.241Z,99.90
2023-03-26T05:07:48.197Z,99.90
2023-03-26T05:10:17.229Z,99.90
2023-03-26T05:12:44.166Z,99.90
2023-03-26T05:15:12.425Z,99.90
2023-03-26T05:17:41.839Z,99.90
2023-03-26T05:20:30.205Z,99.90
2023-03-26T05:22:57.325Z,99.90
2023-03-26T05:25:24.349Z,99.90
2023-03-26T05:27:51.405Z,99.90
2023-03-26T05:30:20.813Z,99.90
2023-03-26T05:32:49.439Z,99.90
2023-03-26T05:35:19.787Z,99.90
2023-03-26T05:37:48.019Z,99.90
2023-03-26T05:40:17.284Z,99.90
2023-03-26T05:42:45.420Z,99.90
2023-03-26T05:45:14.243Z,99.90
2023-03-26T05:47:41.550Z,99.90
2023-03-26T05:50:12.485Z,99.90
2023-03-26T05:52:39.638Z,99.90
2023-03-26T05:55:08.480Z,99.90
2023-03-26T05:57:35.764Z,99.90
2023-03-26T06:00:04.651Z,99.90
2023-03-26T06:02:31.761Z,99.90
2023-03-26T06:04:58.733Z,99.90
2023-03-26T06:07:27.142Z,99.90
2023-03-26T06:09:54.393Z,99.90
2023-03-26T06:12:21.554Z,99.90
2023-03-26T06:14:48.514Z,99.90
2023-03-26T06:17:15.645Z,99.90
2023-03-26T06:19:42.577Z,99.90
2023-03-26T06:22:09.488Z,99.90
2023-03-26T06:24:36.342Z,99.90
2023-03-26T06:27:03.310Z,99.90
2023-03-26T06:29:30.420Z,99.90
2023-03-26T06:32:01.545Z,99.90
2023-03-26T06:34:36.326Z,99.90
2023-03-26T06:37:03.303Z,99.90
2023-03-26T06:39:30.333Z,99.90
2023-03-26T06:41:57.233Z,99.90
2023-03-26T06:44:24.141Z,99.90
2023-03-26T06:46:51.154Z,99.90
2023-03-26T06:49:18.154Z,99.90
2023-03-26T06:51:46.534Z,99.90
2023-03-26T06:54:13.869Z,99.90
2023-03-26T06:56:40.890Z,99.90
2023-03-26T06:59:07.903Z,99.90
2023-03-26T07:01:34.880Z,99.90
2023-03-26T07:04:01.996Z,99.90
2023-03-26T07:06:29.039Z,99.90
2023-03-26T07:08:57.444Z,99.90
2023-03-26T07:11:25.681Z,99.90
2023-03-26T07:13:52.961Z,99.90
2023-03-26T07:16:20.154Z,99.90
2023-03-26T07:18:47.246Z,99.90
2023-03-26T07:21:14.984Z,99.90
2023-03-26T07:23:42.314Z,99.90
2023-03-26T07:26:28.452Z,99.90
2023-03-26T07:29:05.479Z,99.90
2023-03-26T07:31:47.230Z,99.90
2023-03-26T07:34:37.432Z,99.90
2023-03-26T07:37:33.055Z,99.90
2023-03-26T07:40:26.113Z,99.90
2023-03-26T07:43:51.706Z,99.90
2023-03-26T07:46:25.990Z,99.90
2023-03-26T07:48:55.022Z,99.90
2023-03-26T07:51:22.360Z,99.90
2023-03-26T07:53:49.601Z,99.90
2023-03-26T07:56:19.877Z,99.90
2023-03-26T07:58:53.084Z,99.90
2023-03-26T08:01:44.051Z,99.90
2023-03-26T08:04:39.901Z,99.90
2023-03-26T08:07:10.572Z,99.80
2023-03-26T08:09:45.569Z,99.90
2023-03-26T08:12:30.835Z,99.90
2023-03-26T08:15:12.955Z,99.80
2023-03-26T08:17:48.219Z,99.90
2023-03-26T08:20:34.954Z,99.60
2023-03-26T08:23:06.785Z,87.70
2023-03-26T08:26:12.813Z,94.80
2023-03-26T08:28:42.576Z,81.50
2023-03-26T08:31:13.726Z,90.40
2023-03-26T08:33:40.806Z,84.70
2023-03-26T08:36:09.320Z,86.70
2023-03-26T08:38:36.513Z,86.80
2023-03-26T08:41:12.598Z,88.20
2023-03-26T08:43:48.333Z,82.50
2023-03-26T08:46:18.507Z,78.90
2023-03-26T08:49:12.798Z,77.40
2023-03-26T08:52:12.574Z,75.30
2023-03-26T08:55:01.226Z,71.30
2023-03-26T08:57:52.400Z,69.80
2023-03-26T09:00:47.341Z,69.00
2023-03-26T09:03:38.646Z,66.20
2023-03-26T09:06:25.354Z,67.80
2023-03-26T09:09:31.465Z,67.00
2023-03-26T09:12:13.819Z,66.00
2023-03-26T09:15:18.472Z,65.60
2023-03-26T09:17:45.412Z,64.20
2023-03-26T09:20:48.384Z,67.10
2023-03-26T09:23:33.344Z,64.00
2023-03-26T09:26:23.868Z,65.60
2023-03-26T09:29:28.876Z,66.50
2023-03-26T09:32:14.831Z,65.90
2023-03-26T09:35:13.632Z,66.30
2023-03-26T09:37:59.262Z,65.90
2023-03-26T09:40:54.689Z,66.50
2023-03-26T09:43:40.154Z,65.80
2023-03-26T09:46:18.846Z,66.70
2023-03-26T09:49:09.806Z,67.30
2023-03-26T09:52:17.373Z,65.90
2023-03-26T09:55:14.691Z,65.90
2023-03-26T09:58:14.762Z,67.30
2023-03-26T10:01:12.562Z,68.00
2023-03-26T10:03:50.431Z,68.30
2023-03-26T10:06:33.434Z,68.70
2023-03-26T10:09:29.006Z,67.60
2023-03-26T10:12:15.801Z,67.40
2023-03-26T10:14:48.980Z,67.90
2023-03-26T10:17:34.071Z,67.90
2023-03-26T10:20:19.636Z,68.60
2023-03-26T10:23:08.881Z,69.00
2023-03-26T10:25:50.594Z,68.60
2023-03-26T10:28:48.612Z,68.80
2023-03-26T10:31:24.752Z,68.10
2023-03-26T10:34:00.368Z,69.10
2023-03-26T10:36:58.459Z,68.30
2023-03-26T10:39:44.643Z,68.50
2023-03-26T10:42:33.483Z,67.80
2023-03-26T10:45:12.451Z,68.10
2023-03-26T10:47:50.069Z,68.80
2023-03-26T10:50:22.845Z,68.10
2023-03-26T10:53:03.732Z,67.60
2023-03-26T10:55:41.309Z,67.50
2023-03-26T10:58:26.863Z,68.00
2023-03-26T11:01:11.866Z,67.00
2023-03-26T11:03:54.518Z,67.10
2023-03-26T11:06:27.657Z,65.90
2023-03-26T11:09:22.643Z,65.00
2023-03-26T11:12:25.442Z,64.30
2023-03-26T11:14:58.895Z,65.30
2023-03-26T11:17:53.679Z,65.20
2023-03-26T11:20:48.369Z,63.20
2023-03-26T11:23:24.508Z,61.00
2023-03-26T11:25:58.918Z,62.40
2023-03-26T11:28:29.498Z,63.30
2023-03-26T11:31:12.933Z,64.40
2023-03-26T11:33:50.392Z,63.30
2023-03-26T11:36:22.803Z,63.80
2023-03-26T11:38:51.360Z,64.30
2023-03-26T11:41:23.305Z,64.40
2023-03-26T11:44:25.192Z,64.40
2023-03-26T11:47:01.381Z,63.00
2023-03-26T11:49:29.534Z,63.80
2023-03-26T11:51:56.706Z,63.00
2023-03-26T11:54:23.688Z,63.10
2023-03-26T11:57:20.429Z,62.80
2023-03-26T11:59:58.132Z,60.90
2023-03-26T12:02:34.251Z,61.50
2023-03-26T12:05:16.024Z,62.30
2023-03-26T12:07:53.185Z,61.80
2023-03-26T12:10:42.714Z,61.40
2023-03-26T12:13:33.559Z,62.00
2023-03-26T12:16:18.404Z,61.30
2023-03-26T12:18:56.945Z,61.30
2023-03-26T12:21:23.920Z,62.00
2023-03-26T12:23:56.231Z,61.60
2023-03-26T12:26:41.976Z,62.30
2023-03-26T12:29:19.258Z,61.60
2023-03-26T12:32:18.465Z,61.00
2023-03-26T12:34:45.673Z,61.00
2023-03-26T12:37:19.487Z,61.00
2023-03-26T12:44:49.338Z,60.60
2023-03-26T12:45:41.487Z,60.90
2023-03-26T12:48:13.194Z,57.60
2023-03-26T12:51:17.198Z,56.60
2023-03-26T12:53:53.154Z,53.60
2023-03-26T12:56:36.428Z,55.10
2023-03-26T12:59:35.165Z,53.60
2023-03-26T13:02:29.487Z,51.40
2023-03-26T13:05:06.784Z,50.70
2023-03-26T13:08:12.743Z,49.60
2023-03-26T13:11:16.123Z,50.10
2023-03-26T13:13:49.035Z,52.20
2023-03-26T13:16:16.349Z,53.80
2023-03-26T13:19:02.153Z,54.40
2023-03-26T13:21:47.424Z,55.50
2023-03-26T13:24:30.820Z,57.00
2023-03-26T13:27:18.366Z,57.60
2023-03-26T13:29:49.880Z,58.10
2023-03-26T13:32:32.048Z,58.80
2023-03-26T13:35:27.128Z,59.00
2023-03-26T13:38:20.515Z,59.40
2023-03-26T13:40:53.631Z,58.80
2023-03-26T13:43:36.562Z,59.40
2023-03-26T13:46:26.020Z,59.50
2023-03-26T13:49:02.849Z,59.60
2023-03-26T13:51:50.606Z,58.80
2023-03-26T13:54:44.157Z,58.30
2023-03-26T13:57:17.266Z,58.40
2023-03-26T13:59:53.116Z,57.30
2023-03-26T14:02:41.627Z,56.00
2023-03-26T14:05:22.081Z,52.50
2023-03-26T14:07:57.493Z,53.10
2023-03-26T14:10:28.290Z,52.80
2023-03-26T14:13:16.420Z,53.70
2023-03-26T14:15:59.384Z,53.80
2023-03-26T14:18:45.118Z,54.60
2023-03-26T14:21:38.133Z,55.00
2023-03-26T14:24:09.947Z,54.70
2023-03-26T14:26:40.476Z,55.90
2023-03-26T14:29:31.152Z,55.60
2023-03-26T14:32:07.203Z,52.20
2023-03-26T14:34:53.318Z,52.40
2023-03-26T14:37:47.857Z,52.20
2023-03-26T14:40:16.493Z,52.40
2023-03-26T14:43:01.712Z,53.40
2023-03-26T14:45:53.489Z,51.80
2023-03-26T14:48:41.778Z,49.10
2023-03-26T14:51:36.327Z,49.20
2023-03-26T14:54:06.912Z,49.40
2023-03-26T14:56:57.653Z,50.60
2023-03-26T15:00:02.138Z,52.40
2023-03-26T15:03:02.356Z,53.90
2023-03-26T15:05:49.032Z,55.30
2023-03-26T15:08:34.626Z,53.80
2023-03-26T15:11:41.997Z,54.00
2023-03-26T15:14:20.729Z,54.50
2023-03-26T15:17:09.483Z,56.10
2023-03-26T15:19:57.491Z,55.80
2023-03-26T15:22:25.993Z,56.70
2023-03-26T15:25:11.705Z,56.90
2023-03-26T15:27:58.948Z,56.60
2023-03-26T15:30:59.699Z,56.40
2023-03-26T15:33:45.717Z,56.50
2023-03-26T15:36:54.142Z,57.50
2023-03-26T15:40:07.717Z,57.70
2023-03-26T15:42:48.110Z,59.00
2023-03-26T15:45:36.966Z,59.70
2023-03-26T15:48:13.343Z,60.10
2023-03-26T15:51:05.076Z,60.40
2023-03-26T15:53:55.507Z,59.10
2023-03-26T15:56:53.216Z,56.90
2023-03-26T15:59:39.077Z,56.70
2023-03-26T16:02:12.075Z,57.00
2023-03-26T16:04:50.409Z,56.90
2023-03-26T16:07:39.435Z,56.60
2023-03-26T16:10:44.886Z,55.60
2023-03-26T16:13:30.226Z,54.90
2023-03-26T16:16:10.918Z,56.20
2023-03-26T16:19:00.702Z,57.80
2023-03-26T16:21:36.653Z,58.70
2023-03-26T16:24:03.663Z,57.80
2023-03-26T16:27:03.237Z,57.00
2023-03-26T16:29:31.259Z,55.90
2023-03-26T16:32:10.941Z,55.10
2023-03-26T16:34:52.865Z,53.90
2023-03-26T16:37:32.198Z,52.80
2023-03-26T16:40:32.217Z,51.70
2023-03-26T16:43:17.707Z,51.00
2023-03-26T16:45:49.953Z,53.20
2023-03-26T16:48:31.536Z,54.50
2023-03-26T16:51:18.678Z,55.80
2023-03-26T16:53:51.930Z,57.30
2023-03-26T16:56:22.377Z,58.30
2023-03-26T16:59:07.997Z,59.20
2023-03-26T17:01:48.210Z,59.80
2023-03-26T17:04:27.500Z,60.30
2023-03-26T17:07:08.615Z,60.60
2023-03-26T17:09:59.170Z,61.40
2023-03-26T17:12:44.034Z,61.90
2023-03-26T17:15:13.779Z,62.30
2023-03-26T17:17:55.963Z,62.60
2023-03-26T17:20:51.854Z,63.30
2023-03-26T17:23:36.807Z,63.80
2023-03-26T17:26:06.024Z,63.90
2023-03-26T17:28:53.193Z,64.00
2023-03-26T17:31:34.733Z,64.40
2023-03-26T17:34:47.938Z,64.30
2023-03-26T17:37:19.057Z,64.80
2023-03-26T17:39:48.751Z,64.70
2023-03-26T17:42:15.740Z,65.10
2023-03-26T17:44:56.518Z,65.30
2023-03-26T17:47:41.211Z,66.10
2023-03-26T17:50:20.338Z,66.60
2023-03-26T17:52:51.144Z,67.30
2023-03-26T17:55:27.683Z,67.80
2023-03-26T17:57:58.415Z,68.10
2023-03-26T18:00:36.252Z,68.70
2023-03-26T18:03:06.230Z,69.80
2023-03-26T18:05:34.516Z,69.60
2023-03-26T18:08:13.245Z,70.20
2023-03-26T18:11:08.136Z,70.20
2023-03-26T18:13:44.647Z,69.70
2023-03-26T18:16:37.428Z,70.20
2023-03-26T18:19:23.062Z,69.70
2023-03-26T18:21:53.120Z,69.30
2023-03-26T18:24:30.406Z,69.30
2023-03-26T18:27:12.483Z,69.60
2023-03-26T18:29:45.209Z,70.10
2023-03-26T18:32:12.314Z,70.60
2023-03-26T18:34:46.276Z,70.90
2023-03-26T18:37:18.787Z,71.40
2023-03-26T18:40:11.695Z,72.60
2023-03-26T18:42:41.470Z,71.80
2023-03-26T18:45:25.848Z,72.70
2023-03-26T18:47:53.911Z,73.40
2023-03-26T18:50:37.339Z,74.40
2023-03-26T18:53:06.881Z,73.10
2023-03-26T18:55:39.637Z,73.90
2023-03-26T18:58:32.853Z,74.50
2023-03-26T19:01:20.279Z,75.60
2023-03-26T19:03:53.770Z,75.00
2023-03-26T19:06:21.286Z,74.90
2023-03-26T19:08:48.665Z,75.20
2023-03-26T19:11:17.642Z,75.60
2023-03-26T19:13:58.153Z,75.60
2023-03-26T19:16:28.543Z,76.10
2023-03-26T19:18:59.451Z,76.10
2023-03-26T19:21:26.505Z,76.50
2023-03-26T19:23:54.957Z,76.40
2023-03-26T19:26:22.348Z,76.80
2023-03-26T19:28:53.414Z,76.70
2023-03-26T19:31:28.188Z,76.70
2023-03-26T19:33:57.300Z,77.10
2023-03-26T19:36:29.684Z,77.80
2023-03-26T19:38:59.728Z,77.90
2023-03-26T19:41:30.727Z,77.70
2023-03-26T19:44:04.654Z,78.10
2023-03-26T19:46:34.683Z,78.40
2023-03-26T19:49:47.273Z,78.50
2023-03-26T19:52:16.376Z,79.40
2023-03-26T19:54:59.755Z,78.70
2023-03-26T19:57:29.458Z,79.30
2023-03-26T19:59:57.014Z,79.50
2023-03-26T20:02:24.516Z,80.00
2023-03-26T20:04:51.581Z,80.50
2023-03-26T20:07:35.597Z,81.60
2023-03-26T20:10:05.727Z,82.60
2023-03-26T20:12:33.253Z,83.50
2023-03-26T20:15:01.886Z,84.10
2023-03-26T20:17:34.964Z,85.40
2023-03-26T20:20:02.245Z,86.20
2023-03-26T20:22:29.409Z,86.90
2023-03-26T20:24:56.611Z,87.40
2023-03-26T20:27:23.659Z,87.70
2023-03-26T20:29:50.600Z,87.80
2023-03-26T20:32:24.246Z,88.40
2023-03-26T20:34:52.757Z,89.30
2023-03-26T20:37:19.821Z,89.40
2023-03-26T20:39:46.985Z,89.60
2023-03-26T20:42:17.146Z,89.40
2023-03-26T20:44:44.186Z,89.50
2023-03-26T20:47:11.678Z,89.40
2023-03-26T20:49:39.029Z,89.80
2023-03-26T20:52:06.278Z,90.00
2023-03-26T20:54:33.384Z,89.80
2023-03-26T20:57:00.457Z,90.10
2023-03-26T20:59:28.907Z,90.00
2023-03-26T21:01:57.933Z,90.00
2023-03-26T21:04:26.367Z,89.90
2023-03-26T21:07:00.239Z,90.00
2023-03-26T21:09:34.542Z,90.40
2023-03-26T21:12:20.791Z,90.40
2023-03-26T21:14:48.111Z,91.50
2023-03-26T21:17:20.717Z,90.80
2023-03-26T21:19:48.362Z,91.10
2023-03-26T21:22:48.829Z,91.60
2023-03-26T21:25:36.071Z,92.50
2023-03-26T21:28:11.917Z,92.60
2023-03-26T21:30:39.891Z,92.30
2023-03-26T21:33:07.364Z,92.40
2023-03-26T21:35:35.092Z,92.60
2023-03-26T21:38:04.498Z,92.70
2023-03-26T21:40:32.072Z,93.00
2023-03-26T21:42:59.463Z,93.10
2023-03-26T21:45:26.923Z,93.30
2023-03-26T21:47:54.333Z,93.30
2023-03-26T21:50:22.884Z,93.60
2023-03-26T21:52:51.615Z,93.70
2023-03-26T21:55:23.879Z,93.80
2023-03-26T21:58:11.182Z,94.10
2023-03-26T22:01:20.809Z,94.50
2023-03-26T22:04:00.493Z,95.10
2023-03-26T22:06:42.812Z,94.10
2023-03-26T22:09:15.045Z,94.90
2023-03-26T22:11:43.698Z,94.70
2023-03-26T22:14:13.273Z,94.80
2023-03-26T22:16:41.598Z,95.10
2023-03-26T22:19:09.006Z,95.50
2023-03-26T22:21:36.138Z,95.60
2023-03-26T22:24:07.242Z,95.80
2023-03-26T22:26:34.302Z,95.90
2023-03-26T22:29:05.007Z,95.90
2023-03-26T22:31:32.134Z,96.30
2023-03-26T22:33:59.277Z,96.20
2023-03-26T22:36:27.495Z,96.20
2023-03-26T22:38:55.355Z,96.70
2023-03-26T22:41:23.109Z,97.70
2023-03-26T22:43:53.206Z,97.40
2023-03-26T22:46:21.295Z,97.20
2023-03-26T22:48:48.982Z,97.60
2023-03-26T22:51:19.967Z,97.70
2023-03-26T22:53:46.987Z,97.80
2023-03-26T22:56:15.446Z,97.90
2023-03-26T22:58:42.712Z,98.20
2023-03-26T23:01:12.697Z,98.40
2023-03-26T23:03:39.707Z,99.20
2023-03-26T23:06:12.067Z,99.30
2023-03-26T23:08:40.388Z,99.90
2023-03-26T23:11:18.451Z,99.90
2023-03-26T23:13:47.713Z,99.90
2023-03-26T23:16:16.555Z,99.90
2023-03-26T23:18:44.124Z,99.90
2023-03-26T23:21:19.378Z,99.90
2023-03-26T23:23:48.157Z,99.90
2023-03-26T23:26:15.614Z,99.90
2023-03-26T23:28:43.402Z,99.90
2023-03-26T23:31:14.713Z,99.90
2023-03-26T23:33:46.113Z,99.90
2023-03-26T23:36:17.864Z,99.90
2023-03-26T23:38:47.097Z,99.90
2023-03-26T23:41:15.857Z,99.90
2023-03-26T23:43:54.368Z,99.90
2023-03-26T23:46:30.646Z,99.90
2023-03-26T23:49:03.465Z,99.90
2023-03-26T23:51:31.493Z,99.90
2023-03-26T23:53:59.753Z,99.90
2023-03-26T23:56:32.695Z,99.90
2023-03-26T23:59:00.598Z,99.90
